Time;durP1;ratioP1;P1;durP2;ratioP2;P2;SDS_P1;SDS_P2;PMS_P1;PMS_P2;Temp;Humidity;BMP_temperature;BMP_pressure;BME280_temperature;BME280_humidity;BME280_pressure;Samples;Min_cycle;Max_cycle;Signal;HPM_P1;HPM_P2
2022/07/11 00:01:12;;;;;;;11.57;6.80;;;;;;;19.44;73.87;99028.31;5080186;28;20112;-76
2022/07/11 00:03:37;;;;;;;14.50;7.80;;;;;;;19.43;73.22;99022.06;5081330;28;20065;-74
2022/07/11 00:06:02;;;;;;;10.73;6.93;;;;;;;19.43;73.33;99042.84;5063542;28;20082;-79
2022/07/11 00:08:27;;;;;;;13.43;7.78;;;;;;;19.46;73.34;99042.50;5062521;28;20103;-72
2022/07/11 00:10:51;;;;;;;9.00;7.45;;;;;;;19.52;73.00;99055.34;5096654;28;20054;-71
2022/07/11 00:13:16;;;;;;;9.68;7.63;;;;;;;19.50;73.05;99070.91;5079780;28;20047;-71
2022/07/11 00:15:41;;;;;;;13.75;7.72;;;;;;;19.44;73.49;99066.16;5097732;28;20544;-68
2022/07/11 00:18:06;;;;;;;9.75;7.25;;;;;;;19.45;73.47;99057.88;5080221;27;20043;-73
2022/07/11 00:20:30;;;;;;;11.95;7.68;;;;;;;19.49;73.37;99050.28;5098881;27;20513;-76
2022/07/11 00:22:55;;;;;;;10.55;7.35;;;;;;;19.61;72.63;99061.53;5064983;27;20632;-76
2022/07/11 00:25:20;;;;;;;9.77;7.45;;;;;;;19.60;72.68;99062.53;5064957;27;20584;-74
2022/07/11 00:27:45;;;;;;;10.27;7.18;;;;;;;19.58;72.41;99054.59;5080940;27;20466;-73
2022/07/11 00:30:10;;;;;;;9.70;7.22;;;;;;;19.56;72.84;99053.94;5079115;27;20462;-71
2022/07/11 00:32:35;;;;;;;10.90;7.15;;;;;;;19.66;71.78;99056.41;5097077;27;20130;-67
2022/07/11 00:35:00;;;;;;;10.23;6.75;;;;;;;19.62;72.20;99058.63;5097578;27;20103;-74
2022/07/11 00:37:24;;;;;;;9.45;7.10;;;;;;;19.63;71.84;99046.81;5079996;27;20107;-72
2022/07/11 00:39:49;;;;;;;9.90;6.90;;;;;;;19.64;72.08;99050.34;5102331;27;20043;-70
2022/07/11 00:42:17;;;;;;;13.60;6.88;;;;;;;19.72;71.62;99047.56;5100337;27;20498;-71
2022/07/11 00:44:42;;;;;;;17.17;6.57;;;;;;;19.77;70.58;99054.09;5080409;27;20046;-75
2022/07/11 00:47:07;;;;;;;10.35;7.43;;;;;;;19.70;71.34;99052.31;5098222;27;20047;-75
2022/07/11 00:49:31;;;;;;;9.07;7.10;;;;;;;19.70;71.13;99049.59;5097002;27;20071;-70
2022/07/11 00:51:56;;;;;;;10.75;7.53;;;;;;;19.66;71.40;99043.72;5078368;27;20035;-70
2022/07/11 00:54:23;;;;;;;10.95;6.90;;;;;;;19.72;71.10;99058.38;5078246;27;20050;-69
2022/07/11 00:56:47;;;;;;;9.88;6.38;;;;;;;19.68;71.24;99051.66;5096273;27;20070;-69
2022/07/11 00:59:13;;;;;;;10.13;6.60;;;;;;;19.67;71.69;99048.09;5078063;27;20080;-69
2022/07/11 01:01:38;;;;;;;8.90;6.53;;;;;;;19.71;71.38;99049.44;5101447;27;20425;-68
2022/07/11 01:04:03;;;;;;;8.35;6.40;;;;;;;19.71;71.05;99051.28;5081430;27;20449;-68
2022/07/11 01:06:28;;;;;;;11.13;6.72;;;;;;;19.80;70.61;99034.81;5098330;27;20035;-68
2022/07/11 01:08:53;;;;;;;10.25;7.57;;;;;;;19.81;70.67;99031.09;5117639;27;20041;-70
2022/07/11 01:11:18;;;;;;;7.40;6.25;;;;;;;19.84;70.43;99022.59;5117772;27;20038;-70
2022/07/11 01:13:44;;;;;;;9.75;6.78;;;;;;;19.81;70.43;99025.66;5110334;27;20039;-69
2022/07/11 01:16:14;;;;;;;10.82;6.82;;;;;;;19.80;70.64;99015.88;5099388;27;20035;-72
2022/07/11 01:18:47;;;;;;;9.98;6.80;;;;;;;19.83;70.75;99020.94;5096570;27;20067;-71
2022/07/11 01:21:51;;;;;;;9.25;6.65;;;;;;;19.84;70.42;99025.31;5060865;27;20047;-72
2022/07/11 01:24:17;;;;;;;8.45;6.50;;;;;;;19.86;72.47;99017.03;4994107;28;20049;-71
2022/07/11 01:26:43;;;;;;;9.55;6.30;;;;;;;19.87;72.83;99018.66;4977203;28;20094;-75
2022/07/11 01:29:13;;;;;;;13.25;7.00;;;;;;;19.87;72.11;99005.97;4993694;28;20500;-76
2022/07/11 01:31:39;;;;;;;10.40;7.05;;;;;;;19.88;70.80;98996.00;4993715;28;20087;-70
2022/07/11 01:34:04;;;;;;;9.50;6.40;;;;;;;19.92;70.82;99005.44;4994268;28;20103;-74
2022/07/11 01:36:29;;;;;;;10.77;6.63;;;;;;;19.92;70.51;99010.84;4978642;28;20053;-76
2022/07/11 01:38:54;;;;;;;13.70;6.75;;;;;;;19.92;70.61;99011.69;4993667;28;20083;-72
2022/07/11 01:41:19;;;;;;;13.27;6.72;;;;;;;19.92;70.42;99000.88;4993447;28;20052;-68
2022/07/11 01:43:43;;;;;;;12.20;6.30;;;;;;;19.94;70.42;99003.41;4993398;28;20516;-70
2022/07/11 01:46:08;;;;;;;9.70;6.70;;;;;;;19.94;69.98;99003.41;4993255;28;20046;-69
2022/07/11 01:48:33;;;;;;;7.72;6.22;;;;;;;19.95;70.12;99010.50;4959964;28;20495;-70
2022/07/11 01:50:58;;;;;;;9.45;6.93;;;;;;;19.98;70.48;99004.69;4976609;28;20743;-70
2022/07/11 01:53:23;;;;;;;9.20;6.28;;;;;;;20.01;70.05;99011.59;4996637;28;20044;-71
2022/07/11 01:55:48;;;;;;;9.40;7.07;;;;;;;20.03;69.84;98990.63;5081625;27;20134;-70
2022/07/11 01:58:13;;;;;;;12.02;7.28;;;;;;;20.07;70.25;98971.13;5043330;28;20137;-73
2022/07/11 02:00:37;;;;;;;8.75;5.80;;;;;;;20.10;70.13;98962.63;5094916;27;20097;-70
2022/07/11 02:03:02;;;;;;;11.95;7.25;;;;;;;20.13;70.36;98961.41;5095248;27;20520;-73
2022/07/11 02:05:27;;;;;;;9.07;6.95;;;;;;;20.15;70.27;98953.94;5060115;28;20039;-71
2022/07/11 02:10:35;;;;;;;9.20;6.57;;;;;;;20.19;69.71;98945.28;5095197;28;20031;-74
2022/07/11 02:13:01;;;;;;;13.43;7.05;;;;;;;20.20;69.42;98932.59;5086882;27;20050;-71
2022/07/11 02:15:27;;;;;;;10.63;6.75;;;;;;;20.16;69.12;98956.47;5080413;27;20075;-69
2022/07/11 02:17:52;;;;;;;9.75;7.25;;;;;;;20.13;69.31;98950.59;5097629;27;20046;-72
2022/07/11 02:20:21;;;;;;;8.52;6.32;;;;;;;20.12;69.58;98963.28;5101568;27;20050;-71
2022/07/11 02:22:46;;;;;;;9.20;6.43;;;;;;;20.10;69.62;98978.00;5121521;27;20509;-73
2022/07/11 02:25:12;;;;;;;11.77;6.97;;;;;;;20.10;69.54;98975.31;5121178;27;20046;-72
2022/07/11 02:27:38;;;;;;;8.70;7.00;;;;;;;20.13;69.08;98974.94;5120474;27;20046;-70
2022/07/11 02:30:03;;;;;;;8.73;7.30;;;;;;;20.01;69.51;98984.53;5120533;27;20257;-72
2022/07/11 02:32:28;;;;;;;7.63;6.82;;;;;;;19.94;69.68;98993.41;5120443;27;20042;-70
2022/07/11 02:34:53;;;;;;;9.70;6.68;;;;;;;19.90;70.20;98986.69;5120586;27;20053;-69
2022/07/11 02:37:19;;;;;;;8.60;6.88;;;;;;;19.94;69.77;98992.56;5119836;27;20065;-70
2022/07/11 02:39:44;;;;;;;10.73;7.05;;;;;;;19.96;69.77;98984.28;5119604;27;20501;-70
2022/07/11 02:42:08;;;;;;;10.60;7.43;;;;;;;19.91;69.89;98993.78;5119899;27;20523;-69
2022/07/11 02:44:33;;;;;;;10.27;6.82;;;;;;;19.92;69.91;98987.34;5120161;27;20168;-72
2022/07/11 02:46:58;;;;;;;12.07;7.65;;;;;;;19.96;69.45;98977.00;5101807;27;20050;-71
2022/07/11 02:49:23;;;;;;;11.65;7.72;;;;;;;19.90;69.82;98978.56;5120056;27;20035;-71
2022/07/11 02:51:48;;;;;;;13.95;7.53;;;;;;;19.97;69.66;98972.44;5101731;27;20050;-71
2022/07/11 02:54:12;;;;;;;8.65;7.22;;;;;;;19.91;69.80;98966.72;5101579;27;20035;-71
2022/07/11 02:56:37;;;;;;;9.50;7.03;;;;;;;20.00;69.34;98969.34;5101089;27;20045;-71
2022/07/11 02:59:02;;;;;;;9.57;7.25;;;;;;;19.97;69.41;98969.72;5119302;27;20468;-72
2022/07/11 03:01:27;;;;;;;12.00;7.78;;;;;;;19.99;69.02;98965.78;5100650;27;20046;-70
2022/07/11 03:03:51;;;;;;;10.07;6.55;;;;;;;20.01;69.12;98960.19;5100588;27;20035;-71
2022/07/11 03:06:16;;;;;;;11.13;7.38;;;;;;;20.06;68.94;98965.91;5120194;27;20047;-74
2022/07/11 03:08:41;;;;;;;8.93;7.43;;;;;;;20.05;68.98;98965.06;5120836;27;20069;-75
2022/07/11 03:11:06;;;;;;;11.32;7.78;;;;;;;20.07;69.13;98959.47;5123487;27;20039;-72
2022/07/11 03:13:30;;;;;;;8.88;6.90;;;;;;;20.10;69.18;98959.06;5105300;27;20074;-73
2022/07/11 03:15:55;;;;;;;7.95;6.65;;;;;;;20.17;68.54;98965.44;5117015;27;20081;-71
2022/07/11 03:18:20;;;;;;;11.07;7.47;;;;;;;20.14;68.75;98957.69;5109794;27;20035;-72
2022/07/11 03:20:45;;;;;;;12.15;7.10;;;;;;;20.19;68.80;98963.38;5108000;27;20096;-71
2022/07/11 03:23:10;;;;;;;8.95;7.38;;;;;;;20.29;68.32;98961.22;5090090;27;20076;-70
2022/07/11 03:25:35;;;;;;;10.73;7.40;;;;;;;20.35;68.05;98965.03;5109813;27;20043;-71
2022/07/11 03:27:59;;;;;;;10.82;7.80;;;;;;;20.47;67.65;98972.53;5110793;27;20039;-71
2022/07/11 03:30:24;;;;;;;10.07;7.22;;;;;;;20.57;67.61;98972.22;5081068;27;20054;-71
2022/07/11 03:32:49;;;;;;;10.02;7.38;;;;;;;20.71;67.13;98968.66;5093228;27;20039;-70
2022/07/11 03:37:57;;;;;;;11.05;6.90;;;;;;;21.07;66.23;98968.63;5085181;27;20042;-71
2022/07/11 03:40:22;;;;;;;7.35;6.32;;;;;;;21.20;65.04;98971.50;5079626;27;20051;-70
2022/07/11 03:42:47;;;;;;;10.20;7.13;;;;;;;21.24;64.82;98974.66;5079736;27;20523;-71
2022/07/11 03:45:12;;;;;;;11.13;6.55;;;;;;;21.24;64.84;98975.50;5097867;27;20067;-71
2022/07/11 03:47:36;;;;;;;11.00;7.05;;;;;;;21.24;64.95;98974.66;5098037;27;20134;-72
2022/07/11 03:50:01;;;;;;;12.73;7.05;;;;;;;21.12;65.07;98974.28;5079325;27;20127;-73
2022/07/11 03:52:28;;;;;;;9.27;6.72;;;;;;;21.11;65.07;98969.91;5079788;27;20501;-70
2022/07/11 03:54:52;;;;;;;10.38;7.13;;;;;;;21.22;64.88;98963.19;5079190;27;20046;-70
2022/07/11 03:57:17;;;;;;;9.55;7.10;;;;;;;21.37;64.37;98964.78;5097809;27;20246;-71
2022/07/11 03:59:42;;;;;;;7.07;6.15;;;;;;;21.59;64.11;98972.88;5081246;27;20039;-71
2022/07/11 04:02:07;;;;;;;8.70;7.30;;;;;;;21.80;63.09;98969.28;5097879;27;20130;-71
2022/07/11 04:04:32;;;;;;;10.65;7.30;;;;;;;21.89;63.13;98962.69;5079088;27;20038;-71
2022/07/11 04:06:57;;;;;;;13.43;6.80;;;;;;;21.91;63.26;98966.84;5097991;27;20050;-71
2022/07/11 04:09:22;;;;;;;10.98;7.35;;;;;;;21.91;62.94;98964.16;5098144;27;20035;-72
2022/07/11 04:11:47;;;;;;;7.95;6.53;;;;;;;21.93;62.69;98963.94;5099147;27;20497;-72
2022/07/11 04:14:11;;;;;;;9.13;6.72;;;;;;;22.04;62.46;98966.97;5099355;27;20051;-74
2022/07/11 04:16:36;;;;;;;9.82;7.05;;;;;;;22.00;62.16;98962.16;5085544;27;20050;-74
2022/07/11 04:19:01;;;;;;;9.48;7.13;;;;;;;22.02;62.27;98968.22;5102006;27;20047;-74
2022/07/11 04:21:26;;;;;;;11.25;6.75;;;;;;;22.16;62.09;98975.41;5062779;27;20042;-74
2022/07/11 04:23:51;;;;;;;7.88;6.85;;;;;;;22.25;61.28;98970.66;5096542;27;20046;-74
2022/07/11 04:26:16;;;;;;;11.15;6.55;;;;;;;22.39;61.20;98972.41;5081279;27;20506;-75
2022/07/11 04:28:40;;;;;;;9.07;6.97;;;;;;;22.55;60.88;98963.91;5097995;27;20079;-75
2022/07/11 04:31:05;;;;;;;10.48;6.90;;;;;;;22.70;59.76;98966.47;5098273;27;20062;-75
2022/07/11 04:33:30;;;;;;;8.00;6.45;;;;;;;22.59;59.93;98965.16;5097765;27;20075;-73
2022/07/11 04:35:55;;;;;;;10.10;7.78;;;;;;;22.58;59.59;98968.09;5079570;27;20050;-74
2022/07/11 04:38:23;;;;;;;9.63;6.30;;;;;;;22.55;59.42;98966.63;5097740;27;20100;-73
2022/07/11 04:40:49;;;;;;;9.63;6.88;;;;;;;22.67;59.65;98965.00;5078469;28;20043;-75
2022/07/11 04:43:13;;;;;;;10.23;7.22;;;;;;;22.93;59.22;98972.41;5097612;27;20409;-74
2022/07/11 04:45:39;;;;;;;13.60;7.63;;;;;;;23.11;58.47;98960.97;5078942;27;20386;-73
2022/07/11 04:48:04;;;;;;;11.10;6.30;;;;;;;23.30;58.32;98960.16;5097214;27;20043;-72
2022/07/11 04:50:29;;;;;;;9.15;6.90;;;;;;;23.63;57.41;98962.06;5097746;27;20614;-72
2022/07/11 04:52:54;;;;;;;9.20;7.25;;;;;;;23.87;55.64;98954.09;5097972;27;20081;-72
2022/07/11 04:55:19;;;;;;;9.38;7.35;;;;;;;24.09;55.30;98959.31;5098064;27;20066;-72
2022/07/11 04:57:43;;;;;;;14.48;6.85;;;;;;;24.34;54.73;98962.22;5078736;27;20095;-73
2022/07/11 05:00:09;;;;;;;12.95;7.05;;;;;;;24.50;54.27;98959.00;5096806;27;20058;-72
2022/07/11 05:02:34;;;;;;;8.25;7.38;;;;;;;24.51;53.16;98947.03;5096962;27;20087;-71
2022/07/11 05:04:58;;;;;;;11.23;6.93;;;;;;;24.58;53.52;98939.69;5097806;27;20081;-71
2022/07/11 05:07:23;;;;;;;10.27;7.30;;;;;;;24.71;53.69;98938.78;5097165;27;20184;-71
2022/07/11 05:09:48;;;;;;;9.65;6.65;;;;;;;24.88;52.89;98938.06;5077894;27;20118;-71
2022/07/11 05:12:12;;;;;;;10.23;6.63;;;;;;;25.12;53.01;98932.91;5096855;27;20043;-73
2022/07/11 05:14:37;;;;;;;8.13;7.00;;;;;;;25.45;52.07;98933.50;5078747;27;20035;-72
2022/07/11 05:17:02;;;;;;;9.48;7.20;;;;;;;25.48;51.67;98935.78;5077950;27;20047;-73
2022/07/11 05:19:27;;;;;;;10.57;7.45;;;;;;;25.61;51.74;98937.59;5074666;28;20071;-71
2022/07/11 05:21:52;;;;;;;11.63;7.30;;;;;;;25.74;50.61;98940.19;5075645;28;20051;-73
2022/07/11 05:24:18;;;;;;;9.63;6.72;;;;;;;25.82;51.09;98925.44;5075792;28;20516;-72
2022/07/11 05:26:44;;;;;;;12.13;7.50;;;;;;;26.01;50.52;98924.38;5075637;28;20149;-73
2022/07/11 05:29:09;;;;;;;9.32;6.95;;;;;;;26.19;49.89;98924.38;5074314;28;20039;-70
2022/07/11 05:31:33;;;;;;;8.10;6.35;;;;;;;26.24;49.74;98929.19;5075325;28;20047;-73
2022/07/11 05:33:58;;;;;;;7.82;6.40;;;;;;;26.34;49.18;98933.09;5075356;28;20051;-73
2022/07/11 05:36:23;;;;;;;6.95;5.95;;;;;;;26.51;48.00;98924.28;5074007;28;20050;-71
2022/07/11 05:38:47;;;;;;;8.98;6.60;;;;;;;26.65;48.16;98931.22;5075589;28;20440;-71
2022/07/11 05:41:12;;;;;;;11.05;7.00;;;;;;;26.83;47.97;98928.47;5075589;28;20080;-73
2022/07/11 05:43:37;;;;;;;9.18;7.03;;;;;;;26.91;46.88;98932.75;5074422;28;20049;-72
2022/07/11 05:46:05;;;;;;;7.80;6.82;;;;;;;26.92;46.29;98932.56;5073964;28;20471;-73
2022/07/11 05:48:30;;;;;;;8.68;7.20;;;;;;;27.02;46.75;98921.91;5074282;28;20035;-71
2022/07/11 05:50:55;;;;;;;8.80;6.03;;;;;;;27.31;46.04;98924.84;5057751;28;20032;-70
2022/07/11 05:53:20;;;;;;;11.77;7.13;;;;;;;27.63;45.86;98912.53;5074716;28;20043;-72
2022/07/11 05:55:44;;;;;;;7.28;6.47;;;;;;;28.03;45.27;98925.50;5074602;28;20046;-72
2022/07/11 05:58:09;;;;;;;9.40;7.10;;;;;;;28.38;44.37;98915.34;5074449;28;20206;-72
2022/07/11 06:00:34;;;;;;;15.10;7.30;;;;;;;28.97;43.58;98924.22;5057372;28;20130;-73
2022/07/11 06:02:59;;;;;;;8.90;7.00;;;;;;;29.24;42.32;98913.44;5075521;28;20126;-69
2022/07/11 06:05:23;;;;;;;9.82;6.90;;;;;;;29.73;41.63;98916.50;5074036;28;20047;-71
2022/07/11 06:10:32;;;;;;;8.23;6.28;;;;;;;31.04;38.83;98909.97;5075063;28;20044;-71
2022/07/11 06:12:57;;;;;;;14.48;7.55;;;;;;;31.50;37.50;98899.41;5075140;28;20126;-71
2022/07/11 06:15:22;;;;;;;8.57;6.03;;;;;;;32.03;36.35;98901.22;5074940;28;20096;-69
2022/07/11 06:17:47;;;;;;;10.80;6.38;;;;;;;32.52;35.00;98906.41;5073518;28;20043;-69
2022/07/11 06:20:12;;;;;;;8.80;6.32;;;;;;;32.32;34.69;98892.53;5056570;28;20101;-70
2022/07/11 06:22:37;;;;;;;11.48;6.20;;;;;;;32.42;34.77;98898.09;5073449;28;20055;-69
2022/07/11 06:25:02;;;;;;;8.70;7.25;;;;;;;32.58;34.88;98899.84;5074706;28;20047;-70
2022/07/11 06:27:27;;;;;;;8.07;6.22;;;;;;;32.99;34.19;98895.28;5073695;28;20039;-70
2022/07/11 06:29:52;;;;;;;9.02;7.03;;;;;;;33.48;33.43;98889.28;5075157;28;20137;-71
2022/07/11 06:32:17;;;;;;;11.38;6.47;;;;;;;33.10;33.21;98898.88;5074902;28;20489;-70
2022/07/11 06:34:42;;;;;;;11.02;6.65;;;;;;;33.07;33.94;98897.47;5075015;28;20048;-70
2022/07/11 06:37:07;;;;;;;11.27;6.28;;;;;;;32.95;33.36;98896.09;5073784;28;20100;-69
2022/07/11 06:39:32;;;;;;;8.80;6.82;;;;;;;32.90;33.31;98904.38;5075482;28;20048;-70
2022/07/11 06:41:57;;;;;;;9.30;6.80;;;;;;;32.78;33.71;98899.91;5074811;28;20039;-70
2022/07/11 06:44:21;;;;;;;10.15;6.53;;;;;;;32.24;34.15;98890.31;5076563;28;20096;-69
2022/07/11 06:46:46;;;;;;;11.57;6.70;;;;;;;31.58;35.17;98890.66;5079044;28;20039;-68
2022/07/11 06:49:13;;;;;;;9.68;6.95;;;;;;;32.00;35.34;98893.47;5076623;28;20047;-70
2022/07/11 06:51:37;;;;;;;8.05;7.00;;;;;;;32.59;34.08;98887.69;5077374;28;20131;-69
2022/07/11 06:54:02;;;;;;;12.50;6.72;;;;;;;32.78;32.98;98885.28;5076735;28;20131;-70
2022/07/11 06:56:27;;;;;;;7.82;6.65;;;;;;;32.89;33.29;98880.63;5076061;28;20134;-71
2022/07/11 06:58:52;;;;;;;8.55;6.40;;;;;;;32.66;33.69;98879.16;5074652;28;20048;-70
2022/07/11 07:01:17;;;;;;;8.77;6.38;;;;;;;32.40;34.11;98880.97;5075760;28;20047;-70
2022/07/11 07:03:42;;;;;;;9.57;6.60;;;;;;;31.90;34.37;98876.03;5057436;28;20409;-70
2022/07/11 07:06:07;;;;;;;13.60;8.52;;;;;;;32.24;34.41;98879.28;5078256;28;20540;-70
2022/07/11 07:08:32;;;;;;;12.40;6.60;;;;;;;32.88;33.33;98881.72;5078810;28;20130;-70
2022/07/11 07:10:57;;;;;;;8.20;6.57;;;;;;;32.37;33.66;98887.06;5082403;28;20118;-69
2022/07/11 07:13:25;;;;;;;11.05;5.70;;;;;;;32.02;34.47;98883.00;5082658;28;20047;-70
2022/07/11 07:15:50;;;;;;;7.90;5.60;;;;;;;31.52;34.15;98874.34;5078729;28;20085;-68
2022/07/11 07:18:15;;;;;;;9.65;6.57;;;;;;;31.04;35.80;98865.94;5079936;27;20143;-68
2022/07/11 07:20:40;;;;;;;12.55;6.55;;;;;;;31.07;35.75;98883.84;5080254;27;20042;-72
2022/07/11 07:23:04;;;;;;;16.48;6.82;;;;;;;31.23;35.50;98871.09;5080514;27;20163;-69
2022/07/11 07:25:29;;;;;;;13.20;6.30;;;;;;;31.74;35.06;98873.16;5080550;27;20042;-69
2022/07/11 07:27:54;;;;;;;12.68;7.22;;;;;;;31.72;34.46;98882.78;5098399;27;20049;-71
2022/07/11 07:30:19;;;;;;;8.65;6.68;;;;;;;31.39;34.62;98865.44;5079775;27;20039;-69
2022/07/11 07:32:43;;;;;;;10.43;6.80;;;;;;;31.79;34.97;98877.06;5079856;27;20413;-68
2022/07/11 07:35:08;;;;;;;9.73;6.70;;;;;;;32.98;33.43;98863.22;5079540;27;20060;-69
2022/07/11 07:37:33;;;;;;;8.63;6.72;;;;;;;34.35;31.84;98854.00;5098153;27;20417;-69
2022/07/11 07:39:58;;;;;;;9.98;8.07;;;;;;;35.51;29.81;98861.56;5098147;27;20050;-69
2022/07/11 07:42:22;;;;;;;8.40;7.07;;;;;;;36.46;28.63;98940.56;5079484;27;20043;-69
2022/07/11 07:44:47;;;;;;;9.60;6.85;;;;;;;36.96;27.59;98945.47;5098345;27;20039;-70
2022/07/11 07:47:12;;;;;;;14.25;8.00;;;;;;;37.46;27.21;98948.66;5098383;27;20051;-75
2022/07/11 07:49:37;;;;;;;8.75;7.30;;;;;;;38.35;25.64;98865.81;5079670;27;20075;-71
2022/07/11 07:52:02;;;;;;;7.00;6.30;;;;;;;39.01;23.73;98872.75;5079789;27;20035;-73
2022/07/11 07:54:26;;;;;;;9.50;7.72;;;;;;;38.94;23.75;98871.53;5079965;27;20047;-69
2022/07/11 07:56:51;;;;;;;7.00;6.30;;;;;;;38.53;23.91;98874.38;5097771;27;20049;-69
2022/07/11 07:59:16;;;;;;;7.03;6.03;;;;;;;38.36;24.37;98867.47;5098448;27;20501;-69
2022/07/11 08:01:45;;;;;;;13.55;6.80;;;;;;;37.42;24.99;98861.41;5097549;27;20390;-68
2022/07/11 08:04:10;;;;;;;7.75;5.97;;;;;;;36.13;26.26;98865.38;5079222;27;20043;-68
2022/07/11 08:06:35;;;;;;;13.05;7.32;;;;;;;34.96;28.02;98951.47;5080069;27;20035;-71
2022/07/11 08:09:01;;;;;;;7.10;6.50;;;;;;;34.84;28.52;98953.75;5098622;27;20031;-72
2022/07/11 08:11:27;;;;;;;9.55;7.28;;;;;;;35.27;28.02;98933.56;5098640;27;20043;-71
2022/07/11 08:13:52;;;;;;;7.57;6.60;;;;;;;35.68;27.74;98974.81;5098357;27;20566;-71
2022/07/11 08:16:18;;;;;;;8.30;7.25;;;;;;;36.23;26.98;98887.50;5095855;27;20054;-71
2022/07/11 08:18:42;;;;;;;7.88;6.82;;;;;;;36.79;26.51;98850.72;5079943;27;20103;-72
2022/07/11 08:21:07;;;;;;;11.95;6.93;;;;;;;37.56;25.69;98850.31;5098294;27;20051;-72
2022/07/11 08:23:32;;;;;;;11.02;7.53;;;;;;;38.82;24.39;98847.00;5062929;27;20098;-72
2022/07/11 08:25:57;;;;;;;11.30;6.90;;;;;;;39.36;22.53;98862.72;5098224;27;20054;-71
2022/07/11 08:28:22;;;;;;;7.38;6.63;;;;;;;39.35;22.50;98869.41;5098011;27;20042;-73
2022/07/11 08:30:47;;;;;;;7.05;6.40;;;;;;;39.41;22.88;98843.06;5097400;27;20043;-72
2022/07/11 08:33:12;;;;;;;12.63;7.03;;;;;;;38.71;23.97;98849.19;5079418;27;20039;-71
2022/07/11 08:35:37;;;;;;;8.85;7.18;;;;;;;38.88;23.22;98833.75;5097988;27;20042;-71
2022/07/11 08:38:02;;;;;;;8.50;6.95;;;;;;;38.71;23.69;98838.03;5079570;27;20045;-72
2022/07/11 08:40:27;;;;;;;9.25;7.55;;;;;;;38.23;24.26;98829.31;5079721;27;20062;-71
2022/07/11 08:42:55;;;;;;;8.95;8.07;;;;;;;38.63;24.09;98832.38;5097996;27;20046;-70
2022/07/11 08:45:22;;;;;;;11.20;7.95;;;;;;;40.01;23.05;98833.41;5079165;27;20035;-72
2022/07/11 08:47:49;;;;;;;12.23;7.47;;;;;;;41.40;21.31;98838.91;5078867;27;20471;-71
2022/07/11 08:50:14;;;;;;;8.55;7.70;;;;;;;41.92;20.37;98824.78;5097169;27;20344;-69
2022/07/11 08:52:39;;;;;;;8.27;7.57;;;;;;;42.29;20.01;98845.56;5097190;27;20519;-69
2022/07/11 08:55:08;;;;;;;8.55;7.68;;;;;;;42.32;19.31;98834.50;5061238;27;20104;-71
2022/07/11 08:57:36;;;;;;;9.18;8.18;;;;;;;41.85;19.49;98824.47;5078344;27;20121;-69
2022/07/11 09:00:05;;;;;;;10.60;6.90;;;;;;;42.14;19.23;98793.72;5078408;27;20046;-71
2022/07/11 09:02:32;;;;;;;8.13;7.15;;;;;;;41.23;19.75;98850.09;5078182;27;20043;-70
2022/07/11 09:04:57;;;;;;;7.95;7.22;;;;;;;40.78;19.96;98832.81;5096564;27;20045;-69
2022/07/11 09:07:22;;;;;;;13.20;7.22;;;;;;;40.70;20.28;98831.66;5078211;27;20039;-70
2022/07/11 09:09:46;;;;;;;8.00;7.30;;;;;;;40.84;20.06;98823.13;5096815;27;20079;-72
2022/07/11 09:12:14;;;;;;;8.40;7.70;;;;;;;41.08;20.36;98826.25;5078360;27;20071;-71
2022/07/11 09:14:39;;;;;;;9.38;8.27;;;;;;;41.64;19.86;98830.00;5060807;27;20525;-70
2022/07/11 09:17:05;;;;;;;8.55;7.85;;;;;;;42.26;19.74;98863.84;5096350;27;20588;-71
2022/07/11 09:19:32;;;;;;;8.52;7.50;;;;;;;41.98;19.48;98829.06;5074451;28;20055;-71
2022/07/11 09:28:01;;;;;;;7.47;6.88;;;;;;;42.81;18.84;98842.47;5073747;28;20035;-70
2022/07/11 09:30:28;;;;;;;9.70;7.85;;;;;;;42.28;19.19;98827.09;5076069;28;20558;-69
2022/07/11 09:32:59;;;;;;;9.32;7.65;;;;;;;42.50;19.13;98824.03;5075609;28;20494;-70
2022/07/11 09:35:27;;;;;;;9.13;8.23;;;;;;;42.49;19.35;98818.75;5075595;28;20052;-71
2022/07/11 09:37:52;;;;;;;10.70;8.20;;;;;;;43.09;18.57;98819.13;5074695;28;20438;-70
2022/07/11 09:40:18;;;;;;;9.25;7.82;;;;;;;43.41;18.43;98820.34;5074878;28;20075;-71
2022/07/11 09:42:56;;;;;;;8.75;8.05;;;;;;;42.65;18.59;98815.03;5076563;28;20409;-71
2022/07/11 09:45:22;;;;;;;8.85;8.05;;;;;;;41.82;19.46;98803.56;5076121;28;20051;-71
2022/07/11 09:47:49;;;;;;;9.38;8.32;;;;;;;41.78;19.64;98796.16;5077915;28;20047;-71
2022/07/11 09:50:18;;;;;;;9.18;8.05;;;;;;;42.10;19.66;98794.75;5083715;28;20520;-71
2022/07/11 09:53:17;;;;;;;10.50;8.38;;;;;;;42.77;19.44;98793.81;5078170;28;20075;-70
2022/07/11 09:55:45;;;;;;;11.73;8.40;;;;;;;43.79;18.05;98799.63;5082876;28;20506;-71
2022/07/11 09:58:13;;;;;;;13.50;9.95;;;;;;;43.51;17.63;98795.78;5079190;28;20096;-71
2022/07/11 10:00:39;;;;;;;11.15;9.80;;;;;;;43.95;16.73;98806.19;5084982;28;20039;-72
2022/07/11 10:03:05;;;;;;;10.43;9.43;;;;;;;43.48;17.51;98805.72;5057968;28;20432;-71
2022/07/11 10:05:30;;;;;;;10.07;9.07;;;;;;;43.76;17.39;98780.66;5077019;28;20044;-69
2022/07/11 10:07:55;;;;;;;15.77;9.65;;;;;;;43.60;17.76;98786.13;5076149;28;20043;-71
2022/07/11 10:10:20;;;;;;;11.10;9.95;;;;;;;43.79;17.63;98782.78;5075366;28;20043;-70
2022/07/11 10:12:48;;;;;;;16.95;9.05;;;;;;;44.15;17.16;98774.34;5075468;28;20093;-70
2022/07/11 10:15:19;;;;;;;11.05;10.05;;;;;;;44.70;16.41;98786.94;5074838;28;20039;-70
2022/07/11 10:17:49;;;;;;;10.15;9.18;;;;;;;44.34;15.97;98801.06;5075234;28;20043;-73
2022/07/11 10:20:22;;;;;;;9.77;8.77;;;;;;;43.74;16.65;98768.97;5093282;27;20521;-70
2022/07/11 10:22:46;;;;;;;9.27;8.48;;;;;;;43.85;16.43;98784.19;5095485;28;20043;-70
2022/07/11 10:25:53;;;;;;;9.48;8.60;;;;;;;43.69;16.42;98770.00;5095572;28;20092;-69
2022/07/11 10:28:23;;;;;;;10.20;9.02;;;;;;;43.05;17.11;98770.50;5012579;28;20570;-70
2022/07/11 10:30:55;;;;;;;9.90;8.98;;;;;;;43.22;16.55;98772.34;5012408;28;20131;-71
2022/07/11 10:33:20;;;;;;;10.67;8.77;;;;;;;43.29;17.00;98766.16;4995760;28;20566;-70
2022/07/11 10:35:47;;;;;;;9.07;7.95;;;;;;;42.78;17.37;98756.25;4995997;28;20420;-71
2022/07/11 10:38:14;;;;;;;7.85;7.05;;;;;;;41.84;17.36;98769.66;5012485;28;20049;-69
2022/07/11 10:40:55;;;;;;;10.18;7.60;;;;;;;39.13;19.89;98783.81;5015316;28;20040;-69
2022/07/11 10:43:20;;;;;;;6.90;5.82;;;;;;;37.78;21.47;98734.47;5016577;28;20200;-70
2022/07/11 10:46:09;;;;;;;10.30;7.10;;;;;;;36.43;23.32;98761.50;5000102;28;20123;-69
2022/07/11 10:48:51;;;;;;;9.57;6.65;;;;;;;35.21;25.37;98781.44;5008995;28;20053;-69
2022/07/11 10:51:24;;;;;;;7.38;6.38;;;;;;;34.40;26.37;98759.88;5016067;28;20117;-70
2022/07/11 10:53:51;;;;;;;9.13;6.30;;;;;;;33.48;28.05;98740.03;5016499;28;20048;-71
2022/07/11 10:56:32;;;;;;;9.00;6.85;;;;;;;33.21;28.25;98740.31;5016701;28;20052;-71
2022/07/11 10:59:14;;;;;;;7.90;6.90;;;;;;;32.91;28.17;98754.16;4999651;28;20049;-72
2022/07/11 11:02:01;;;;;;;7.93;6.85;;;;;;;32.85;28.57;98735.94;5018904;27;20050;-70
2022/07/11 11:04:46;;;;;;;10.40;6.97;;;;;;;32.65;28.85;98762.38;5099196;27;20055;-72
2022/07/11 11:07:32;;;;;;;7.65;5.97;;;;;;;32.30;29.32;98757.63;5100088;27;20047;-73
2022/07/11 11:09:58;;;;;;;7.53;6.72;;;;;;;32.05;30.67;98747.34;5099246;27;20477;-71
2022/07/11 11:13:08;;;;;;;7.25;6.53;;;;;;;32.04;30.89;98748.44;5098825;27;20039;-72
2022/07/11 11:15:56;;;;;;;10.43;6.28;;;;;;;31.97;31.34;98747.84;5082516;27;20157;-71
2022/07/11 11:18:26;;;;;;;7.45;6.55;;;;;;;31.96;31.17;98751.72;5062692;27;20405;-71
2022/07/11 11:21:00;;;;;;;5.95;5.03;;;;;;;32.10;30.67;98747.34;5055292;28;20165;-72
2022/07/11 11:23:26;;;;;;;;;;;;;;;32.09;30.65;98748.44;5039579;28;20470;-72
2022/07/11 11:25:51;;;;;;;9.63;6.68;;;;;;;31.95;31.13;98774.03;5055487;28;20278;-73
2022/07/11 11:28:21;;;;;;;10.77;7.07;;;;;;;31.82;31.05;98738.72;5055669;28;20511;-71
2022/07/11 11:30:56;;;;;;;11.57;7.38;;;;;;;31.71;31.56;98730.41;5055725;28;20052;-71
2022/07/11 11:33:21;;;;;;;9.45;6.28;;;;;;;31.59;32.07;98726.19;5038801;28;20410;-72
2022/07/11 11:35:57;;;;;;;7.03;6.25;;;;;;;31.61;31.94;98723.94;5055464;28;20399;-72
2022/07/11 11:38:23;;;;;;;7.15;6.45;;;;;;;31.65;32.47;98730.63;5041663;28;20083;-70
2022/07/11 11:40:48;;;;;;;10.88;6.07;;;;;;;31.70;32.04;98722.41;5056849;28;20056;-71